SMRA90 UAOL 161500
AAXX 16151
91612 41599 21105 10274 20237 40074 57018 70200 82101 333 562/9 82820=
91824 41499 71215 10221 20201 40153 57009 70152 8387/ 333 5639/ 555 1////=
91929 24986 /1309 10251 20210 30142 40145 53003 700// 333 4//// 60007 90710 91112 555 60005=
93339 46/// /2712 10043 20022 39271 57016=
93985 47597 /2719 10101 20063 30078 40094 57024=
94100 46/// /3603 10268 20224 30071 40098=
94106 46/// /0609 10289 20224 30098 40116=
94108 46/// /0105 10265 2//// 30100 40112=
94109 46/// /0000 10226 20218 30103 40115=
94110 46/// /0501 10263 20224 30106 40116=
94341 46/// /3505 10221 20140 39889 40123=
94344 46/// /1709 10239 20038 39939 40143=
94348 46/// /2202 10209 20163=
94349 46/// /0502 10200 20170=
94395 46/// /2307 10245 20137 39824 40132=
94417 46/// /2202 10170 20062 39830 40144=
94429 46/// /0906 10225 20036 39681 40146=
94450 46/// /0709 10210 20028 39749 40174=
94628 46/// /0000 10091 20051 39795 40172=
94641 46/// /1703 10130 20087 39797 40174=
94644 46/// /1112 10148 20098 30235 40239=
94782 46/// /0606 10181 20161=
94875 46/// /0205 10143 20141 30005 40141=
94943 46/// /0209 10148 20116 39453 40178=
94988 46/// /1903 10159 20136 30128 40137=
95111 46/// /0112 10288 20241 30054 40087=
95214 46/// /3606 10289 20233 30091 40096=
95305 46/// /2608 10215 20183 30125 40138=
95317 46/// /3502 10248 21065 39919 40124=
95322 46/// /1603 10232 20106 39726 40102=
95402 46/// /1808 10186 20153 30096 40136=
95480 46/// /2011 10182 20061 30121 40180=
95482 46/// /2307 10180 20027 30105 40159=
95485 46/// /2108 10185 20054 39944 40149=
95492 46/// /2206 10196 20070 39983 40135=
95612 46/// /1603 10122 20090 30069 40157=
95625 46/// /0503 10102 20085 39912 40167=
95632 46/// /0000 10089 20081 39959 40172=
95634 46/// /0608 10188 20046 39770 40174=
95635 46/// /0505 10125 20109 30148 40180=
95637 46/// /0000 10160 20053 39835 40171=
95639 46/// /0709 10141 20095=
95642 46/// /0906 10165 20074 39891 40199=
95644 46/// /0512 10144 20110 39928 40188=
95647 46/// /0904 10135 20135 30080 40168=
95826 46/// /3407 10141 30106 40108=
95832 46/// /3203 10127 2////=
95839 46/// /3309 10130 20122 39972 40132=
95966 46/// /1003 10152 20141 39934 40135=
98134 32515 10000 10248 20/// 39931 40119 51003 81200 333 56999 81820=
98222 21462 41801 10268 20255 40112 58001 71381 83970 333 56999 69907 81918 83619=
98223 32460 61301 10266 20241 40109 50002 81878 333 56999 81619 83279=
98233 31565 70301 10266 20242 40119 51008 70544 84870 333 56999 84820 87358=
98324 31468 42703 10262 20238 40114 50000 71344 82960 333 56999 81915 81816 83358=
98328 31456 43401 10180 20165 38524 40096 50001 70544 81108 333 56999 81815 84279=
98426 31562 61002 10265 20249 30098 40120 58003 70544 82237 333 56999 82820 83358=
98428 32458 40901 10287 20249 40103 51005 82461 333 56999 82618=
98431 31460 71102 10272 20259 30070 40117 51003 70322 83270 333 56999 83818 87459=
98432 31568 20000 10260 20249 40116 50000 70544 81202 333 56999 81820=
98434 32475 22801 10250 20239 30111 40119 58002 81201 333 56999 81818=
98435 32470 20000 10252 20241 40107 51011 82201 333 56999 82818=
98446 32468 53202 10242 20237 30076 40122 53002 83202 333 56799 83818 85070=
98543 32465 60000 10270 20254 30101 40112 58007 83208 333 56999 83818 86272=
98546 32565 61801 10254 20243 30103 40110 50000 82208 333 56999 82820 86275=
98550 32460 33201 10250 20239 30107 40110 58001 81262 333 56999 81818=
98618 21470 52501 10260 20238 40118 50000 78022 82271 333 56999 69907 82819 84358=
98646 32460 80000 10264 20240 30085 40113 50001 8297/ 333 56999 82918 88459=
98653 31465 71901 10276 20260 30085 40130 50000 70222 82270 333 56999 82818 87358=
98746 31460 80000 10260 20236 40105 57010 70584 83978 333 56999 69907 83917 83818 84358 87275=



SMUS90 KWBC 161500
AAXX 16154
91503 31470 70000 10269 20256 40083 57026 70522 8297/ 333 56999 82816 81917 87360=
91517 31475 62003 10255 20225 40076 57031 70522 81237 333 56000 81815 86280=
91520 31475 60000 10252 20233 40076 55031 70522 81236 333 56999 81815 83360 85280=
91579 24236 81012 10225 20217 30133 40143 58010 763// 333 4//// 60167 90710 91125 555 60065=
91587 24338 70809 10215 20205 30103 40159 58010 761// 333 4//// 60267 90710 91117 555 60155=
91590 24786 81405 10217 20183 30128 40141 58012 700// 333 4//// 60007 90710 91113 555 60005=
91596 24/61 /0714 10214 20199 30040 40161 58015 700// 333 4//// 60007 90710 91128 555 60005=
91753 24584 61108 10273 20235 30071 40103 56010 700// 333 4//// 60007 90710 91117 555 60005=
91779 41398 71010 10233 20210 40158 57008 70222 8471/ 333 5629/ 83709 84817 87461=
91792 41398 71010 10218 20171 40183 58015 70222 8477/ 333 5629/ 81708 84816 87461=
91925 22582 60304 10236 20219 30068 40129 53011 86800 333 56200 69927 84821 90710 91108 555 60005 10608 58002=
91938 24985 /1703 10231 20191 30145 40147 53004 700// 333 60007 90710 91106 555 60005 11806 58002=
91944 24563 /0708 10253 20210 30145 40158 53006 700// 333 4//// 60007 90710 91111 555 60005=
91948 22382 73607 10224 20212 30061 40164 53007 872// 333 56899 60007 87808 90710 91114 555 60005 13614 59016=
91954 24570 81305 10199 20147 30166 40170 53007 700// 333 4//// 60007 90710 91112 555 60005 11614 58017=
91958 22575 70503 10160 20127 30159 40161 53016 85831 333 56499 60007 85823 83363 85073 90710 91109 555 60005 10110 58027=
93004 46/// /2011 10111 20065 30019 40278 57012=
93023 46/// /2006 10085 20068 30167 40272 57017=
93069 46/// /2313 10121 20059 30177 40262 57021=
93110 47698 /2413 10122 20059 30249 40258 57019=
93186 47698 /2510 10105 20039 30232 40237 57020=
93196 46/// /2713 10110 20085 30152 40207 57025=
93201 46/// /2316 10119 20063 30222 40252 57018=
93245 47598 /2616 10082 20042 39747 40240 57017=
93292 47/98 /3305 10089 20071 30191 40196 57028=
93309 47698 /2414 10118 20065 30207 40243 57017=
93373 47/98 /3009 10110 20040 30186 40188 57029=
93404 47598 /3310 10108 20062 30160 40217 57027=
93420 47/97 /0111 10120 20103 30197 40204 57026=
93439 47/98 /0215 10121 20088 30171 40186 57018=
93498 46/// /3144 10110 20052 30000 40143 57033=
93515 47698 /2210 10096 20070 30247 40252 57013=
93527 46/// /2617 10115 20061 30200 40206 57016=
93546 47/98 /2318 10117 20035 30194 40200 57018=
93597 46/// /2804 10109 20056 30166 40172 57008=
93615 47698 /2203 10099 20068 30189 40247 57014=
93678 46/98 /1602 10108 20075 30042 40172 57006=
93709 46/// /1701 10077 20067 30248 40249 57014=
93747 46/// /3002 10093 21005 39615 40195 57012=
93773 47998 /3008 10090 20069 30128 40161 57022=
93781 47997 /3305 10068 20064 30127 40173 57014=
93800 46/// /2805 10108 20101 30224 40245 57013=
93831 46799 /2409 10095 20019 39787 40219 57011=
93845 47697 /2815 10114 20077 30180 40181 57012=
93891 47898 /2412 10140 20041 30148 40151 57012=
93909 46/// /3133 10105 20102 30030 40155 57006=
93929 46/// /2626 10068 20051 40085 57008=
93947 46/// /2517 10060 20052 40040 52014=
93994 46/// /1803 10126 20093 30200 40259 57012=
94102 46/// /2103 10277 20257 30096 40105=
94105 46/// /0301 10266 20239 30087 40108=
94120 46/// /3605 10274 20238 30072 40112=
94131 46/// /1705 10253 20212 39949 40100=
94147 46/// /1210 10262 20237 30090 40112=
94150 46/// /0604 10261 20233 30055 40116=
94170 46/// /0807 10256 20227 30095 40116=
94200 46/// /2207 10221 20093 30106 40115=
94203 46/// /0000 10223 20196 30094 40104=
94204 46/// /1708 10267 21003 39996 40083=
94206 46/// /1807 10269 21019 39962 40090=
94207 46/// /2410 10258 30105 40114 58004=
94212 46/// /1804 10272 21036 39637 40090=
94216 46/// /3605 10267 20236 30048 40098=
94217 46/// /3509 10302 20216 39909 40093=
94238 46/// /0814 10277 20081 39701 40121=
94248 46/// /0608 10273 20233 30101 40115=
94255 46/// /1502 10230 20205 39867 40128=
94268 46/// /1004 10247 20210 30107 40119=
94287 46/// /2703 10237 20214 30121 40131=
94294 46/// /3306 10252 20222 30115 40125=
94298 46/// /0908 10237 30124 40130 58013=
94299 46/// /0914 10250 20199 30119 40130=
94300 46/// /1809 10207 20163 30128 40138=
94302 46/// /2807 10216 20135 30130 40136=
94306 46/// /3101 10212 20164 30118 40132=
94308 46/// /2308 10229 20174 30118 40131=
94312 46/// /2207 10209 20150 30117 40127=
94316 46/// /0405 10246 21056 39643 40116=
94317 46/// /1103 10212 21048 39549 40132=
94319 46/// /1511 10255 20002 39800 40127=
94326 46/// /1006 10181 20016 39553 40169=
94327 46/// /1608 10206 20004 39792 40166=
94332 46/// /0000 10192 20168 39748 40131=
94346 46/// /1705 10239 20137 39900 40119=
94363 46/// /0709 10238 20195 39917 40134=
94367 46/// /0205 10236 20213 30089 40131=
94374 46/// /1006 10223 20181 30126 40144=
94388 46/// /1012 10221 20200 30135 40140=
94394 46/// ///13 10230 30122 40130 57012=
94403 46/// /1105 10123 20109 30105 40141=
94430 46/// /0807 10225 21030 39556 40140=
94449 46/// /0812 10184 20056 39656 40186=
94461 46/// /1309 10185 21057 39492 40160=
94462 46/// /1305 10170 20014 39613 40169=
94510 46/// /1106 10189 20170 39793 40140=
94515 46/// /0312 10221 20147 39788 40141=
94552 46/// /0808 10173 20153 39693 40161=
94578 46/// /1204 10201 20191 30157 40168=
94584 46/// /1418 10207 20188 30038 40149=
94600 46/// /1410 10132 20102 30031 40161=
94601 46/// /0914 10161 20127 30150 40167=
94602 46/// /1509 10177 20136 30105 40156=
94603 46/// /1409 10155 20107=
94604 46/// /0000 10119 20096 30157 40164=
94605 46/// /1604 10173 20149 30156 40160=
94608 46/// /0000 10154 20120 30127 40157=
94609 46/// /1703 10145 20125 30122 40159=
94610 46/// /0000 10137 20118 30134 40158=
94612 46/// /0000 10149 20113 30102 40157=
94614 46/// /1305 10165 20125=
94615 46/// /1009 10174 20108=
94620 46/// /1208 10122 20103 39852 40168=
94637 46/// /0407 10187 20037 39768 40192=
94638 46/// /0409 10135 20092 30177 40209=
94647 46/// /1506 10136 20080 30125 40236=
94651 46/// /1410 10140 20094 30159 40236=
94653 46/// /1910 10146 20102 30204 40223=
94659 46/// /2111 10126 20064 39997 40195=
94672 46/// /2415 10137 20114 30160 40170=
94691 46/// /2211 10142 20077 39836 40164=
94693 46/// /2607 10152 20098 30093 40154=
94703 46/// /0000 10179 20168 30014 40139=
94710 46/// /0607 10177 20174 39884 40137=
94729 46/// /0501 10132 20118 39314 40167=
94750 46/// /3504 10140 20126 30051 40175=
94767 46/// /0214 10190 20164 30179 40185=
94776 46/// /0507 10185 20163 30173 40182=
94802 46/// /0805 10128 20119 30092 40176=
94804 46/// /2523 10122 2//// 30145 40183=
94821 46/// /3307 10129 20123 30033 40116=
94842 46/// /0305 10146 20131 30017 40116=
94850 46/// /0608 10149 20149 30065 40111=
94865 46/// /0505 10153 20128 30103 40127=
94866 46/// /3613 10151 20129 39984 40125=
94893 46/// /3311 10213 20095 30001 40117=
94907 46/// ///// 10172 20143=
94910 46/// /1013 10151 20151 39905 40157=
94926 46/// /0000 10153 20119 39504 40175=
94935 46/// /0111 10180 20141 30126 40153=
94951 46/// /0406 10151 20138 30122 40137=
94954 46/// ///// 10139 20134 30002 40113=
94956 46/// /1203 10159 20144 30095 40122=
94975 46/// /1304 10150 20136 30106 40139=
94983 46/// /0705 10150 20139 30118 40143=
94995 46/// /0717 10187 20158 30210 40218=
94996 46/// /0913 10163 20148 30091 40229=
94998 46/// /2822 10027 20023 30039 40050=
95205 46/// /1506 10257 20011 30084 40092=
95288 46/// /1210 10254 30114 40129 58013 555 77744 BV126 T0316 44777=
95307 46/// /2206 10226 20194 30120 40127=
95448 46/// /0906 10190 20028 39599 40162=
95458 46/// /1814 10162 21132 39930 40192=
95481 46/// /2108 10188 20034 30115 40160=
95527 46/// /0611 10206 20140 39901 40154=
95610 46/// /1108 10147 20103=
95611 46/// /1401 10123 20100 30142 40162=
95636 46/// /0904 10121 20097 39817 40177=
95638 46/// /0312 10125 20093 30037 40206=
95646 46/// /1107 10111 20085 30042 40231=
95666 46/// /2312 10139 20070 30175 40192=
95719 46/// /2109 10174 20143 39836 40169=
95762 46/// /1110 10189 20117 39705 40163=
95909 46/// /3415 10062 20058 38049 40186=
95936 46/// /0206 10166 20133 30122 40131=
95954 46/// /0915 10141 20141 30006 40110=
96315 41460 72401 10265 20252 40128 70522 81848 333 81815 85278=
96413 41465 72603 10255 20242 30095 40122 71722 83931 333 81915 83620 85365=
96421 42465 70902 10241 20229 30092 40128 70222 83531 333 83616 85365=
96441 41468 71103 10251 20246 30095 40122 51014 70122 82541 333 82616 86080=
96449 41465 70904 10259 20247 30100 40119 51011 71322 84931 333 81915 83616 86365=
96465 42470 70801 10261 20240 30090 40124 52011 70222 8/848 333 81812 87278=
96471 42468 71106 10252 20221 30125 40128 52010 70322 82848 333 81814 83364 87277=
96481 41465 63202 10245 20234 30098 40117 52004 70322 83841 333 82817 86080=
96491 42464 72203 10267 20248 30106 40118 70122 82832 333 81816 87078=
96995 46/// /1310 1//// 2//// 39848 40144=
96996 354// 11309 10262 20222 30156 40160 51022 333 10290=